Overview Statistics Trail Chart Weather Telemetry Raw packets
 

This is the latest recevied telemetry packets stored in our database for station/object DL3MC-21. If no packets are shown the sender has not sent any telemetry packets the latest 10 day(s).

Telemetry packets is used to share measurements like repeteater parameters, battery voltage, radiation readings (or any other measurements).

<< 1 2 3 4 >>
Time Press* Temp.in* Hum* QNH* Temp.out*
1788652907 1012.7 hPa 11.9 C deg 100 % 1029.6 hPa 0 C deg
1788651091 1012.7 hPa 12.2 C deg 100 % 1029.6 hPa 0 C deg
1788649279 1012.2 hPa 12.7 C deg 100 % 1029.1 hPa 0 C deg
1788647461 1011.8 hPa 13.2 C deg 100 % 1028.7 hPa 0 C deg
1788645649 1011.4 hPa 13.9 C deg 100 % 1028.3 hPa 0 C deg
1788643832 1011.1 hPa 14.8 C deg 100 % 1027.9 hPa 0 C deg
1788642015 1011 hPa 15.4 C deg 100 % 1027.7 hPa 0 C deg
1788640202 1010.8 hPa 16.1 C deg 100 % 1027.5 hPa 0 C deg
1788638388 1010.5 hPa 16.9 C deg 85.1 % 1027.1 hPa 0 C deg
1788636574 1010.2 hPa 18.1 C deg 72.4 % 1026.8 hPa 0 C deg
1788634755 1010 hPa 18.9 C deg 63 % 1026.5 hPa 0 C deg
1788632940 1009.6 hPa 19.4 C deg 58.8 % 1026.1 hPa 0 C deg
1788631129 1009.2 hPa 20.2 C deg 55.9 % 1025.6 hPa 0 C deg
1788629310 1009 hPa 20.9 C deg 52.7 % 1025.4 hPa 0 C deg
1788627495 1008.8 hPa 22 C deg 49.8 % 1025.1 hPa 0 C deg
1788625680 1008.4 hPa 22.6 C deg 48.5 % 1024.7 hPa 0 C deg
1788623869 1008 hPa 23.5 C deg 48 % 1024.3 hPa 0 C deg
1788622051 1007.9 hPa 23.3 C deg 46.4 % 1024.2 hPa 0 C deg
1788620236 1007.8 hPa 23.5 C deg 47 % 1024 hPa 0 C deg
1788618422 1007.7 hPa 23.9 C deg 45.9 % 1023.9 hPa 0 C deg
1788616605 1007.6 hPa 23.5 C deg 46.9 % 1023.8 hPa 0 C deg
1788614792 1007.6 hPa 24.4 C deg 47.8 % 1023.8 hPa 0 C deg
1788612975 1007.4 hPa 23.5 C deg 51.1 % 1023.6 hPa 0 C deg
1788611164 1007.3 hPa 23.4 C deg 52 % 1023.6 hPa 0 C deg
1788609344 1007.4 hPa 22.3 C deg 54.6 % 1023.7 hPa 0 C deg
*Used Equation Coefficients:
Press: 0, 1, 0
Temp.in: 0, 1, 0
Hum: 0, 1, 0
QNH: 0, 1, 0
Temp.out: 0, 1, 0

  • The parameter names for the analog channels will be Value1, Value2, Value3 (up to Value5) if station has not sent a PARAM-packet that specifies the parameter names for each analog channel.
  • Each analog value is a decimal number between 000 and 255 (according to APRS specifications). The receiver use the telemetry equation coefficientsto to restore the original sensor values. If no EQNS-packet with equation coefficients is sent we will show the values as is (this corresponds to the equation coefficients a=0, b=1 and c=0).
    The sent equation coefficients is used in the equation: a * value2 + b * value + c.
  • The units for the analog values will not be shown if station has not sent a UNIT-packet specifying what unit's to use.
  • The parameter names for the digital bits will be Bit1, Bit2, Bit3 (up to Bit8) if station has not sent a PARAM-packet that specifies the parameter names for each digital bit.
  • All bit labels will be named "On" if station has not sent a UNIT-packet that specifies the label of each bit.
  • A bit is considered to be On when the bit is 1 if station has not sent a BITS-packet that specifies another "Bit sense" (a BITS-packet specify the state of the bits that match the BIT labels)